createdAt,value
2023-03-03T00:00:37.474Z,7.17
2023-03-03T00:03:09.361Z,7.14
2023-03-03T00:05:38.411Z,7.07
2023-03-03T00:08:07.036Z,7.12
2023-03-03T00:10:35.781Z,7.14
2023-03-03T00:13:04.458Z,7.04
2023-03-03T00:15:33.168Z,7.06
2023-03-03T00:18:03.505Z,7.10
2023-03-03T00:20:38.736Z,7.16
2023-03-03T00:23:21.802Z,7.20
2023-03-03T00:25:52.678Z,7.22
2023-03-03T00:28:33.248Z,7.22
2023-03-03T00:31:03.734Z,7.03
2023-03-03T00:33:35.376Z,7.24
2023-03-03T00:36:31.836Z,7.04
2023-03-03T00:39:27.644Z,7.19
2023-03-03T00:41:57.278Z,7.06
2023-03-03T00:44:42.415Z,7.08
2023-03-03T00:47:31.410Z,7.17
2023-03-03T00:50:33.792Z,7.19
2023-03-03T00:53:12.820Z,7.16
2023-03-03T00:55:41.536Z,7.11
2023-03-03T00:58:10.540Z,7.14
2023-03-03T01:00:44.610Z,7.14
2023-03-03T01:03:17.846Z,7.15
2023-03-03T01:05:47.677Z,7.04
2023-03-03T01:08:16.593Z,6.48
2023-03-03T01:10:50.964Z,7.03
2023-03-03T01:13:20.721Z,7.10
2023-03-03T01:15:49.239Z,7.16
2023-03-03T01:18:17.898Z,7.09
2023-03-03T01:20:48.281Z,6.89
2023-03-03T01:23:16.728Z,7.03
2023-03-03T01:25:45.480Z,7.12
2023-03-03T01:28:14.033Z,6.96
2023-03-03T01:30:42.552Z,7.02
2023-03-03T01:33:11.123Z,7.07
2023-03-03T01:35:41.199Z,7.07
2023-03-03T01:38:10.962Z,7.07
2023-03-03T01:40:39.532Z,7.08
2023-03-03T01:43:08.216Z,7.13
2023-03-03T01:46:23.917Z,7.06
2023-03-03T01:48:58.065Z,7.01
2023-03-03T01:51:30.765Z,7.07
2023-03-03T01:54:05.104Z,7.11
2023-03-03T01:56:33.607Z,6.98
2023-03-03T01:59:07.399Z,7.13
2023-03-03T02:01:36.051Z,7.18
2023-03-03T02:04:04.788Z,7.18
2023-03-03T02:06:38.633Z,7.18
2023-03-03T02:09:16.534Z,7.17
2023-03-03T02:11:48.420Z,7.16
2023-03-03T02:14:16.762Z,7.29
2023-03-03T02:16:45.524Z,7.17
2023-03-03T02:19:23.605Z,7.10
2023-03-03T02:21:52.026Z,7.12
2023-03-03T02:24:27.376Z,7.08
2023-03-03T02:26:57.730Z,7.07
2023-03-03T02:29:26.399Z,7.12
2023-03-03T02:31:54.956Z,6.98
2023-03-03T02:34:23.846Z,6.99
2023-03-03T02:36:53.654Z,7.08
2023-03-03T02:39:27.619Z,6.91
2023-03-03T02:42:01.713Z,7.06
2023-03-03T02:44:37.715Z,7.04
2023-03-03T02:47:06.424Z,7.03
2023-03-03T02:49:37.383Z,6.22
2023-03-03T02:52:09.768Z,7.05
2023-03-03T02:54:40.438Z,6.73
2023-03-03T02:57:10.894Z,7.00
2023-03-03T02:59:39.319Z,6.97
2023-03-03T03:02:13.793Z,7.03
2023-03-03T03:04:42.881Z,6.98
2023-03-03T03:07:13.928Z,7.02
2023-03-03T03:09:43.478Z,7.05
2023-03-03T03:12:13.296Z,7.05
2023-03-03T03:14:41.638Z,6.98
2023-03-03T03:17:11.615Z,6.95
2023-03-03T03:19:40.545Z,6.94
2023-03-03T03:22:09.380Z,7.00
2023-03-03T03:24:37.968Z,6.96
2023-03-03T03:27:09.501Z,6.93
2023-03-03T03:29:39.826Z,6.93
2023-03-03T03:32:10.160Z,6.89
2023-03-03T03:34:38.592Z,6.86
2023-03-03T03:37:09.802Z,6.91
2023-03-03T03:39:39.061Z,6.94
2023-03-03T03:42:07.852Z,6.98
2023-03-03T03:44:36.896Z,6.93
2023-03-03T03:47:07.428Z,6.87
2023-03-03T03:49:35.990Z,6.83
2023-03-03T03:52:05.584Z,6.79
2023-03-03T03:54:35.781Z,6.79
2023-03-03T03:57:04.671Z,6.85
2023-03-03T03:59:33.270Z,6.83
2023-03-03T04:02:02.088Z,6.79
2023-03-03T04:04:31.948Z,6.77
2023-03-03T04:07:00.603Z,6.79
2023-03-03T04:09:29.402Z,6.74
2023-03-03T04:11:57.832Z,6.70
2023-03-03T04:14:26.995Z,6.70
2023-03-03T04:16:56.049Z,6.70
2023-03-03T04:19:24.997Z,6.63
2023-03-03T04:21:54.846Z,5.92
2023-03-03T04:24:23.850Z,5.75
2023-03-03T04:26:54.266Z,5.93
2023-03-03T04:29:22.904Z,5.93
2023-03-03T04:31:51.427Z,5.93
2023-03-03T04:34:20.681Z,5.86
2023-03-03T04:36:49.721Z,5.82
2023-03-03T04:39:19.563Z,5.95
2023-03-03T04:41:48.380Z,5.93
2023-03-03T04:44:16.813Z,5.93
2023-03-03T04:46:45.609Z,6.03
2023-03-03T04:49:14.097Z,5.99
2023-03-03T04:51:44.029Z,5.93
2023-03-03T04:54:13.363Z,6.01
2023-03-03T04:56:43.429Z,5.98
2023-03-03T04:59:12.078Z,5.96
2023-03-03T05:01:40.496Z,5.98
2023-03-03T05:04:09.570Z,5.91
2023-03-03T05:06:39.309Z,5.86
2023-03-03T05:09:07.656Z,5.10
2023-03-03T05:11:36.006Z,5.94
2023-03-03T05:14:05.711Z,6.00
2023-03-03T05:16:34.083Z,6.00
2023-03-03T05:19:02.797Z,6.05
2023-03-03T05:21:31.197Z,6.06
2023-03-03T05:23:59.546Z,6.11
2023-03-03T05:26:27.780Z,6.09
2023-03-03T05:28:56.138Z,6.09
2023-03-03T05:31:27.306Z,6.08
2023-03-03T05:33:56.243Z,6.16
2023-03-03T05:36:24.636Z,6.09
2023-03-03T05:38:53.289Z,6.21
2023-03-03T05:41:21.912Z,6.16
2023-03-03T05:43:50.352Z,6.17
2023-03-03T05:46:20.005Z,6.17
2023-03-03T05:48:49.692Z,6.19
2023-03-03T05:51:17.961Z,6.15
2023-03-03T05:53:46.327Z,6.27
2023-03-03T05:56:14.612Z,6.29
2023-03-03T05:58:43.034Z,6.15
2023-03-03T06:01:11.377Z,6.23
2023-03-03T06:03:39.786Z,6.22
2023-03-03T06:06:10.243Z,6.16
2023-03-03T06:08:38.504Z,6.16
2023-03-03T06:11:06.997Z,6.18
2023-03-03T06:13:35.967Z,6.21
2023-03-03T06:16:04.470Z,6.23
2023-03-03T06:18:32.839Z,6.20
2023-03-03T06:21:01.140Z,6.20
2023-03-03T06:23:30.897Z,6.23
2023-03-03T06:25:59.463Z,6.19
2023-03-03T06:28:28.268Z,6.20
2023-03-03T06:30:57.793Z,6.19
2023-03-03T06:33:26.361Z,6.21
2023-03-03T06:35:57.156Z,6.04
2023-03-03T06:38:25.667Z,6.24
2023-03-03T06:40:55.352Z,6.27
2023-03-03T06:43:23.770Z,6.29
2023-03-03T06:45:52.144Z,6.33
2023-03-03T06:48:20.423Z,6.40
2023-03-03T06:50:48.718Z,6.40
2023-03-03T06:53:19.087Z,6.45
2023-03-03T06:55:47.445Z,6.45
2023-03-03T06:58:19.987Z,6.36
2023-03-03T07:00:55.877Z,6.33
2023-03-03T07:03:27.390Z,6.27
2023-03-03T07:05:56.027Z,6.24
2023-03-03T07:08:26.043Z,6.36
2023-03-03T07:10:55.292Z,6.38
2023-03-03T07:13:27.365Z,6.39
2023-03-03T07:15:58.208Z,6.43
2023-03-03T07:18:41.392Z,6.38
2023-03-03T07:21:21.865Z,6.43
2023-03-03T07:23:52.169Z,6.45
2023-03-03T07:26:23.937Z,6.34
2023-03-03T07:29:00.307Z,6.36
2023-03-03T07:31:37.001Z,6.38
2023-03-03T07:34:20.735Z,6.52
2023-03-03T07:36:51.550Z,6.57
2023-03-03T07:39:31.874Z,6.53
2023-03-03T07:42:24.080Z,6.44
2023-03-03T07:45:28.078Z,6.45
2023-03-03T07:48:04.069Z,6.49
2023-03-03T07:50:32.489Z,6.57
2023-03-03T07:53:02.037Z,6.65
2023-03-03T07:55:35.939Z,6.53
2023-03-03T07:58:23.585Z,6.71
2023-03-03T08:01:32.885Z,6.76
2023-03-03T08:04:01.583Z,6.82
2023-03-03T08:06:52.201Z,6.84
2023-03-03T08:09:47.288Z,6.55
2023-03-03T08:12:35.349Z,6.90
2023-03-03T08:15:24.529Z,6.76
2023-03-03T08:17:56.889Z,6.92
2023-03-03T08:20:48.790Z,6.66
2023-03-03T08:23:19.550Z,6.84
2023-03-03T08:25:50.364Z,6.96
2023-03-03T08:28:18.975Z,6.98
2023-03-03T08:30:47.876Z,7.07
2023-03-03T08:33:18.920Z,7.07
2023-03-03T08:35:47.978Z,7.00
2023-03-03T08:38:19.753Z,7.04
2023-03-03T08:40:49.179Z,7.10
2023-03-03T08:43:22.449Z,7.11
2023-03-03T08:45:53.681Z,7.10
2023-03-03T08:48:24.043Z,7.10
2023-03-03T08:50:53.451Z,7.16
2023-03-03T08:53:23.006Z,7.25
2023-03-03T08:55:51.947Z,7.21
2023-03-03T08:58:33.631Z,7.30
2023-03-03T09:01:03.384Z,7.30
2023-03-03T09:03:33.201Z,7.33
2023-03-03T09:06:01.529Z,7.35
2023-03-03T09:08:29.967Z,7.39
2023-03-03T09:10:58.294Z,7.47
2023-03-03T09:13:27.349Z,7.39
2023-03-03T09:15:55.654Z,7.66
2023-03-03T09:18:36.386Z,7.68
2023-03-03T09:21:18.779Z,7.65
2023-03-03T09:23:55.622Z,7.45
2023-03-03T09:26:29.729Z,8.04
2023-03-03T09:29:11.189Z,8.28
2023-03-03T09:31:43.720Z,8.61
2023-03-03T09:34:26.147Z,8.81
2023-03-03T09:36:56.035Z,8.97
2023-03-03T09:39:26.556Z,9.15
2023-03-03T09:42:22.149Z,9.15
2023-03-03T09:45:28.135Z,9.74
2023-03-03T09:48:20.035Z,10.15
2023-03-03T09:51:07.139Z,10.54
2023-03-03T09:53:56.097Z,10.36
2023-03-03T09:56:31.455Z,10.63
2023-03-03T09:59:17.894Z,10.16
2023-03-03T10:02:06.607Z,10.62
2023-03-03T10:04:57.182Z,11.13
2023-03-03T10:07:41.631Z,11.36
2023-03-03T10:10:26.294Z,11.78
2023-03-03T10:13:08.773Z,12.05
2023-03-03T10:15:50.388Z,12.28
2023-03-03T10:18:33.467Z,12.57
2023-03-03T10:21:11.779Z,12.53
2023-03-03T10:23:59.226Z,12.42
2023-03-03T10:27:09.754Z,12.18
2023-03-03T10:29:54.345Z,11.47
2023-03-03T10:32:42.696Z,11.76
2023-03-03T10:36:05.923Z,10.55
2023-03-03T10:38:48.005Z,9.41
2023-03-03T10:41:53.606Z,9.93
2023-03-03T10:44:54.405Z,9.23
2023-03-03T10:47:50.759Z,10.45
2023-03-03T10:50:27.222Z,11.37
2023-03-03T10:53:12.399Z,11.72
2023-03-03T10:55:53.259Z,12.38
2023-03-03T10:58:48.148Z,12.99
2023-03-03T11:01:30.570Z,12.50
2023-03-03T11:05:02.273Z,12.80
2023-03-03T11:07:36.812Z,12.93
2023-03-03T11:10:20.193Z,13.06
2023-03-03T11:13:01.194Z,13.04
2023-03-03T11:15:50.986Z,12.80
2023-03-03T11:18:33.190Z,12.72
2023-03-03T11:21:14.324Z,12.75
2023-03-03T11:24:20.733Z,12.91
2023-03-03T11:27:21.849Z,12.97
2023-03-03T11:30:13.088Z,13.24
2023-03-03T11:32:54.790Z,13.40
2023-03-03T11:35:28.112Z,13.41
2023-03-03T11:38:12.966Z,13.62
2023-03-03T11:40:50.107Z,13.38
2023-03-03T11:43:36.155Z,13.37
2023-03-03T11:46:10.461Z,13.24
2023-03-03T11:48:48.377Z,12.96
2023-03-03T11:51:25.385Z,13.00
2023-03-03T11:54:01.009Z,13.12
2023-03-03T11:56:35.870Z,13.09
2023-03-03T11:59:36.718Z,13.25
2023-03-03T12:02:17.311Z,13.37
2023-03-03T12:04:53.246Z,13.12
2023-03-03T12:07:32.476Z,13.19
2023-03-03T12:10:15.525Z,13.36
2023-03-03T12:12:46.903Z,13.48
2023-03-03T12:15:30.605Z,13.78
2023-03-03T12:18:35.330Z,13.56
2023-03-03T12:21:26.173Z,13.49
2023-03-03T12:24:10.912Z,13.50
2023-03-03T12:26:52.102Z,13.54
2023-03-03T12:29:30.211Z,13.35
2023-03-03T12:32:13.558Z,13.41
2023-03-03T12:34:47.933Z,13.20
2023-03-03T12:37:30.584Z,12.66
2023-03-03T12:40:08.816Z,13.11
2023-03-03T12:42:51.449Z,13.05
2023-03-03T12:45:38.893Z,12.98
2023-03-03T12:48:14.441Z,12.86
2023-03-03T12:50:59.053Z,12.69
2023-03-03T12:53:48.505Z,12.62
2023-03-03T12:56:28.184Z,12.12
2023-03-03T12:59:05.231Z,12.43
2023-03-03T13:01:46.445Z,12.24
2023-03-03T13:04:31.091Z,12.10
2023-03-03T13:07:07.454Z,12.05
2023-03-03T13:09:57.236Z,12.03
2023-03-03T13:12:46.296Z,12.03
2023-03-03T13:15:24.838Z,12.08
2023-03-03T13:18:18.139Z,11.98
2023-03-03T13:20:51.928Z,11.93
2023-03-03T13:23:38.203Z,11.94
2023-03-03T13:26:19.450Z,12.00
2023-03-03T13:29:05.313Z,11.92
2023-03-03T13:31:40.458Z,11.42
2023-03-03T13:34:26.995Z,12.00
2023-03-03T13:37:04.200Z,11.46
2023-03-03T13:39:36.833Z,11.97
2023-03-03T13:42:15.164Z,12.11
2023-03-03T13:44:44.774Z,11.97
2023-03-03T13:47:21.572Z,11.72
2023-03-03T13:50:06.625Z,11.87
2023-03-03T13:52:44.780Z,11.69
2023-03-03T13:55:23.885Z,11.31
2023-03-03T13:58:16.254Z,11.20
2023-03-03T14:00:59.046Z,11.34
2023-03-03T14:03:58.486Z,11.46
2023-03-03T14:06:29.761Z,11.45
2023-03-03T14:09:15.676Z,11.60
2023-03-03T14:11:49.704Z,11.42
2023-03-03T14:14:40.964Z,11.76
2023-03-03T14:17:20.810Z,11.81
2023-03-03T14:19:55.471Z,11.79
2023-03-03T14:22:34.150Z,11.23
2023-03-03T14:25:06.496Z,11.70
2023-03-03T14:27:42.513Z,11.83
2023-03-03T14:30:35.138Z,11.73
2023-03-03T14:33:18.095Z,11.75
2023-03-03T14:35:53.552Z,11.72
2023-03-03T14:38:26.651Z,11.46
2023-03-03T14:41:14.452Z,11.48
2023-03-03T14:43:45.358Z,11.41
2023-03-03T14:46:39.653Z,11.56
2023-03-03T14:49:17.465Z,11.73
2023-03-03T14:51:48.432Z,11.68
2023-03-03T14:54:26.293Z,11.75
2023-03-03T14:57:02.823Z,11.68
2023-03-03T14:59:32.757Z,11.62
2023-03-03T15:02:44.932Z,11.62
2023-03-03T15:05:22.113Z,11.64
2023-03-03T15:07:54.658Z,11.32
2023-03-03T15:10:35.591Z,11.47
2023-03-03T15:13:36.549Z,11.32
2023-03-03T15:16:10.735Z,11.34
2023-03-03T15:19:16.288Z,11.34
2023-03-03T15:21:56.062Z,11.18
2023-03-03T15:24:34.884Z,11.18
2023-03-03T15:27:07.379Z,11.18
2023-03-03T15:29:41.730Z,11.09
2023-03-03T15:32:19.955Z,11.08
2023-03-03T15:35:00.054Z,11.20
2023-03-03T15:37:43.143Z,11.17
2023-03-03T15:40:25.775Z,11.00
2023-03-03T15:43:15.261Z,11.05
2023-03-03T15:45:52.668Z,11.02
2023-03-03T15:48:42.348Z,10.90
2023-03-03T15:51:28.355Z,11.02
2023-03-03T15:54:19.111Z,10.95
2023-03-03T15:56:51.518Z,10.96
2023-03-03T16:00:08.175Z,10.88
2023-03-03T16:02:52.942Z,10.98
2023-03-03T16:05:26.846Z,10.81
2023-03-03T16:08:06.383Z,10.60
2023-03-03T16:10:45.292Z,10.61
2023-03-03T16:13:32.286Z,10.57
2023-03-03T16:16:13.232Z,10.64
2023-03-03T16:18:58.502Z,10.65
2023-03-03T16:21:48.362Z,10.67
2023-03-03T16:24:31.190Z,10.09
2023-03-03T16:27:06.512Z,10.58
2023-03-03T16:29:52.749Z,10.49
2023-03-03T16:32:26.772Z,10.51
2023-03-03T16:35:02.811Z,10.42
2023-03-03T16:37:36.421Z,10.53
2023-03-03T16:40:14.699Z,10.48
2023-03-03T16:42:43.062Z,10.56
2023-03-03T16:45:25.292Z,10.55
2023-03-03T16:48:14.935Z,10.48
2023-03-03T16:50:55.942Z,10.54
2023-03-03T16:53:45.188Z,10.40
2023-03-03T16:56:23.286Z,10.46
2023-03-03T16:59:13.751Z,10.52
2023-03-03T17:01:52.075Z,10.46
2023-03-03T17:04:37.105Z,10.40
2023-03-03T17:07:20.352Z,10.45
2023-03-03T17:10:18.322Z,10.20
2023-03-03T17:13:17.169Z,10.48
2023-03-03T17:15:56.577Z,10.49
2023-03-03T17:18:39.491Z,10.33
2023-03-03T17:21:19.654Z,10.42
2023-03-03T17:24:01.232Z,10.46
2023-03-03T17:26:45.176Z,9.69
2023-03-03T17:29:55.136Z,10.32
2023-03-03T17:32:52.988Z,10.36
2023-03-03T17:35:46.433Z,10.45
2023-03-03T17:38:29.867Z,10.41
2023-03-03T17:41:08.370Z,10.40
2023-03-03T17:43:50.712Z,10.52
2023-03-03T17:46:30.161Z,10.57
2023-03-03T17:49:22.434Z,10.47
2023-03-03T17:52:13.944Z,10.57
2023-03-03T17:55:04.086Z,10.45
2023-03-03T17:57:51.274Z,10.32
2023-03-03T18:00:37.067Z,10.47
2023-03-03T18:03:48.959Z,10.52
2023-03-03T18:07:12.498Z,10.42
2023-03-03T18:10:02.484Z,10.29
2023-03-03T18:12:40.856Z,10.28
2023-03-03T18:15:30.457Z,10.16
2023-03-03T18:18:07.547Z,10.21
2023-03-03T18:20:54.522Z,10.33
2023-03-03T18:23:39.727Z,10.36
2023-03-03T18:26:41.598Z,10.40
2023-03-03T18:29:21.688Z,10.18
2023-03-03T18:32:03.996Z,10.26
2023-03-03T18:34:38.211Z,10.17
2023-03-03T18:37:37.077Z,10.12
2023-03-03T18:40:31.270Z,10.10
2023-03-03T18:43:00.158Z,10.15
2023-03-03T18:45:51.822Z,10.17
2023-03-03T18:48:22.064Z,10.17
2023-03-03T18:50:52.515Z,10.22
2023-03-03T18:53:29.381Z,10.22
2023-03-03T18:55:59.650Z,10.23
2023-03-03T18:58:41.963Z,10.10
2023-03-03T19:01:43.914Z,10.10
2023-03-03T19:04:25.185Z,10.20
2023-03-03T19:07:26.559Z,10.25
2023-03-03T19:10:01.785Z,10.19
2023-03-03T19:12:54.975Z,10.18
2023-03-03T19:15:59.147Z,9.99
2023-03-03T19:18:29.245Z,10.03
2023-03-03T19:21:01.761Z,10.05
2023-03-03T19:23:51.902Z,9.93
2023-03-03T19:26:42.308Z,9.67
2023-03-03T19:29:51.846Z,9.80
2023-03-03T19:32:46.091Z,9.61
2023-03-03T19:35:30.025Z,9.75
2023-03-03T19:38:12.794Z,9.81
2023-03-03T19:40:48.990Z,9.79
2023-03-03T19:43:34.215Z,9.80
2023-03-03T19:46:31.014Z,9.93
2023-03-03T19:49:08.658Z,9.97
2023-03-03T19:51:48.765Z,9.96
2023-03-03T19:54:39.743Z,10.06
2023-03-03T19:57:19.839Z,9.90
2023-03-03T19:59:56.124Z,10.04
2023-03-03T20:02:38.121Z,10.06
2023-03-03T20:05:22.147Z,10.08
2023-03-03T20:08:00.482Z,10.06
2023-03-03T20:10:45.989Z,10.07
2023-03-03T20:13:31.276Z,10.20
2023-03-03T20:16:17.217Z,10.22
2023-03-03T20:19:11.596Z,10.09
2023-03-03T20:21:45.688Z,10.09
2023-03-03T20:24:59.742Z,10.23
2023-03-03T20:27:36.842Z,10.22
2023-03-03T20:30:18.046Z,10.23
2023-03-03T20:33:10.774Z,10.22
2023-03-03T20:35:54.617Z,10.27
2023-03-03T20:38:30.809Z,10.29
2023-03-03T20:41:11.044Z,10.29
2023-03-03T20:43:56.781Z,10.24
2023-03-03T20:46:38.892Z,10.40
2023-03-03T20:49:35.286Z,10.25
2023-03-03T20:52:11.880Z,10.36
2023-03-03T20:54:51.015Z,10.44
2023-03-03T20:57:28.829Z,10.40
2023-03-03T21:00:02.086Z,10.40
2023-03-03T21:02:37.517Z,10.35
2023-03-03T21:05:15.549Z,10.47
2023-03-03T21:07:55.478Z,10.31
2023-03-03T21:10:27.014Z,10.39
2023-03-03T21:13:22.442Z,10.37
2023-03-03T21:15:56.255Z,10.42
2023-03-03T21:18:26.341Z,10.44
2023-03-03T21:20:56.226Z,10.40
2023-03-03T21:23:24.703Z,10.54
2023-03-03T21:25:54.579Z,10.42
2023-03-03T21:28:27.430Z,10.47
2023-03-03T21:31:14.220Z,10.38
2023-03-03T21:33:52.368Z,10.38
2023-03-03T21:36:25.656Z,10.38
2023-03-03T21:38:55.221Z,10.29
2023-03-03T21:41:23.619Z,10.46
2023-03-03T21:43:54.455Z,10.49
2023-03-03T21:46:24.365Z,10.47
2023-03-03T21:48:53.396Z,10.53
2023-03-03T21:51:24.428Z,10.49
2023-03-03T21:53:52.892Z,10.40
2023-03-03T21:56:21.179Z,10.38
2023-03-03T21:58:49.551Z,10.36
2023-03-03T22:01:17.922Z,10.23
2023-03-03T22:03:46.778Z,10.21
2023-03-03T22:06:15.098Z,10.31
2023-03-03T22:08:44.733Z,10.27
2023-03-03T22:11:15.544Z,10.22
2023-03-03T22:13:43.938Z,10.23
2023-03-03T22:16:13.099Z,10.00
2023-03-03T22:18:41.605Z,10.08
2023-03-03T22:21:09.987Z,10.19
2023-03-03T22:23:38.382Z,10.28
2023-03-03T22:26:08.338Z,10.24
2023-03-03T22:28:36.890Z,10.27
2023-03-03T22:31:05.713Z,10.16
2023-03-03T22:33:34.054Z,10.28
2023-03-03T22:36:02.421Z,10.23
2023-03-03T22:38:30.711Z,10.25
2023-03-03T22:40:59.469Z,10.28
2023-03-03T22:43:30.084Z,10.30
2023-03-03T22:45:58.397Z,10.25
2023-03-03T22:48:28.537Z,10.20
2023-03-03T22:50:57.516Z,10.25
2023-03-03T22:53:26.706Z,10.22
2023-03-03T22:55:55.149Z,10.20
2023-03-03T22:58:25.514Z,10.12
2023-03-03T23:00:56.963Z,10.03
2023-03-03T23:03:25.569Z,10.22
2023-03-03T23:05:54.414Z,10.21
2023-03-03T23:08:22.757Z,10.15
2023-03-03T23:10:51.142Z,10.03
2023-03-03T23:13:19.516Z,10.09
2023-03-03T23:15:47.930Z,9.88
2023-03-03T23:18:17.697Z,9.81
2023-03-03T23:20:46.208Z,9.97
2023-03-03T23:23:14.662Z,10.00
2023-03-03T23:25:42.996Z,10.12
2023-03-03T23:28:11.396Z,9.42
2023-03-03T23:30:39.821Z,9.94
2023-03-03T23:33:08.315Z,10.10
2023-03-03T23:35:38.222Z,10.12
2023-03-03T23:38:06.608Z,10.08
2023-03-03T23:40:34.934Z,10.01
2023-03-03T23:43:03.221Z,10.01
2023-03-03T23:45:31.530Z,10.10
2023-03-03T23:47:59.930Z,10.11
2023-03-03T23:50:28.278Z,10.10
2023-03-03T23:52:58.045Z,10.17
2023-03-03T23:55:26.311Z,10.10
2023-03-03T23:57:54.598Z,10.10
